createdAt,value
2023-01-24T00:01:31.000Z,19.55
2023-01-24T00:03:59.061Z,19.28
2023-01-24T00:06:27.094Z,19.48
2023-01-24T00:08:55.237Z,19.44
2023-01-24T00:11:23.252Z,19.54
2023-01-24T00:13:52.629Z,19.11
2023-01-24T00:16:22.912Z,19.21
2023-01-24T00:18:51.647Z,19.05
2023-01-24T00:21:22.267Z,18.88
2023-01-24T00:23:52.268Z,18.99
2023-01-24T00:26:22.096Z,19.16
2023-01-24T00:28:50.410Z,19.23
2023-01-24T00:31:19.897Z,19.10
2023-01-24T00:33:48.246Z,19.14
2023-01-24T00:36:16.333Z,19.03
2023-01-24T00:38:44.639Z,18.68
2023-01-24T00:41:12.901Z,19.10
2023-01-24T00:43:40.885Z,18.92
2023-01-24T00:46:10.110Z,18.68
2023-01-24T00:48:39.526Z,18.77
2023-01-24T00:51:07.767Z,18.82
2023-01-24T00:53:36.166Z,18.39
2023-01-24T00:56:04.552Z,18.46
2023-01-24T00:58:33.965Z,18.79
2023-01-24T01:01:04.452Z,18.69
2023-01-24T01:03:33.233Z,18.75
2023-01-24T01:06:04.811Z,18.72
2023-01-24T01:08:33.433Z,18.69
2023-01-24T01:11:01.514Z,18.74
2023-01-24T01:13:31.025Z,18.49
2023-01-24T01:16:03.822Z,18.71
2023-01-24T01:18:31.949Z,18.59
2023-01-24T01:20:59.996Z,18.88
2023-01-24T01:23:30.290Z,18.71
2023-01-24T01:26:01.602Z,18.56
2023-01-24T01:28:30.599Z,18.94
2023-01-24T01:30:59.124Z,18.69
2023-01-24T01:33:27.185Z,18.84
2023-01-24T01:35:55.204Z,18.80
2023-01-24T01:38:25.566Z,18.99
2023-01-24T01:40:55.423Z,18.90
2023-01-24T01:43:25.292Z,18.89
2023-01-24T01:45:55.630Z,18.74
2023-01-24T01:48:31.568Z,19.12
2023-01-24T01:51:04.619Z,18.86
2023-01-24T01:53:37.682Z,18.84
2023-01-24T01:56:13.018Z,19.07
2023-01-24T01:58:43.241Z,19.17
2023-01-24T02:01:11.448Z,18.84
2023-01-24T02:03:44.902Z,19.03
2023-01-24T02:06:29.172Z,18.94
2023-01-24T02:08:57.354Z,18.72
2023-01-24T02:11:40.173Z,19.13
2023-01-24T02:14:28.920Z,18.82
2023-01-24T02:16:57.078Z,19.09
2023-01-24T02:19:56.793Z,18.74
2023-01-24T02:22:30.412Z,19.04
2023-01-24T02:25:06.233Z,18.71
2023-01-24T02:27:36.604Z,18.97
2023-01-24T02:30:05.439Z,18.90
2023-01-24T02:32:33.430Z,18.97
2023-01-24T02:35:01.479Z,19.05
2023-01-24T02:37:30.066Z,18.66
2023-01-24T02:40:02.113Z,18.60
2023-01-24T02:42:35.527Z,18.67
2023-01-24T02:45:11.318Z,18.70
2023-01-24T02:47:45.073Z,18.98
2023-01-24T02:50:13.806Z,19.03
2023-01-24T02:52:59.503Z,18.69
2023-01-24T02:55:28.022Z,19.19
2023-01-24T02:58:07.747Z,18.76
2023-01-24T03:00:43.664Z,18.99
2023-01-24T03:03:16.467Z,19.21
2023-01-24T03:05:57.321Z,19.10
2023-01-24T03:08:32.550Z,19.00
2023-01-24T03:11:01.619Z,18.84
2023-01-24T03:13:49.275Z,19.26
2023-01-24T03:16:36.992Z,19.13
2023-01-24T03:19:23.316Z,19.05
2023-01-24T03:22:08.639Z,19.32
2023-01-24T03:24:54.550Z,18.94
2023-01-24T03:27:39.825Z,19.30
2023-01-24T03:30:27.506Z,19.00
2023-01-24T03:33:20.094Z,19.29
2023-01-24T03:35:55.423Z,18.91
2023-01-24T03:38:44.504Z,19.48
2023-01-24T03:41:12.934Z,19.10
2023-01-24T03:43:44.264Z,18.85
2023-01-24T03:46:13.463Z,18.95
2023-01-24T03:48:53.825Z,19.44
2023-01-24T03:51:46.531Z,19.42
2023-01-24T03:54:14.758Z,18.96
2023-01-24T03:57:14.704Z,18.99
2023-01-24T03:59:43.043Z,19.07
2023-01-24T04:02:11.119Z,19.08
2023-01-24T04:05:00.492Z,18.97
2023-01-24T04:07:28.592Z,19.50
2023-01-24T04:10:00.740Z,18.99
2023-01-24T04:12:31.622Z,19.38
2023-01-24T04:15:00.966Z,19.49
2023-01-24T04:17:29.992Z,19.05
2023-01-24T04:20:00.176Z,19.55
2023-01-24T04:22:28.508Z,19.19
2023-01-24T04:24:59.372Z,19.37
2023-01-24T04:27:32.090Z,19.56
2023-01-24T04:30:08.374Z,19.57
2023-01-24T04:32:38.552Z,19.50
2023-01-24T04:35:21.226Z,19.65
2023-01-24T04:37:55.119Z,19.46
2023-01-24T04:40:43.329Z,19.68
2023-01-24T04:43:11.573Z,19.23
2023-01-24T04:45:41.017Z,19.52
2023-01-24T04:48:11.652Z,19.71
2023-01-24T04:50:41.088Z,19.65
2023-01-24T04:53:09.072Z,19.71
2023-01-24T04:55:37.245Z,19.52
2023-01-24T04:58:05.225Z,19.60
2023-01-24T05:00:33.137Z,19.57
2023-01-24T05:03:01.310Z,19.85
2023-01-24T05:05:30.141Z,19.82
2023-01-24T05:07:59.905Z,19.80
2023-01-24T05:10:28.004Z,19.62
2023-01-24T05:12:55.960Z,19.45
2023-01-24T05:15:27.113Z,19.67
2023-01-24T05:17:56.323Z,19.64
2023-01-24T05:20:26.891Z,19.58
2023-01-24T05:22:59.089Z,19.57
2023-01-24T05:25:29.141Z,19.63
2023-01-24T05:27:57.032Z,19.54
2023-01-24T05:30:25.744Z,20.10
2023-01-24T05:32:58.188Z,20.04
2023-01-24T05:35:26.789Z,19.96
2023-01-24T05:37:55.340Z,20.01
2023-01-24T05:40:26.450Z,20.25
2023-01-24T05:42:54.517Z,20.17
2023-01-24T05:45:23.052Z,20.20
2023-01-24T05:47:51.398Z,19.94
2023-01-24T05:50:20.715Z,20.04
2023-01-24T05:53:08.783Z,19.84
2023-01-24T05:55:38.273Z,20.02
2023-01-24T05:58:06.281Z,19.83
2023-01-24T06:00:54.462Z,20.23
2023-01-24T06:03:31.987Z,20.29
2023-01-24T06:06:00.203Z,19.90
2023-01-24T06:08:30.823Z,20.32
2023-01-24T06:11:05.862Z,19.96
2023-01-24T06:13:35.237Z,20.33
2023-01-24T06:16:07.114Z,20.37
2023-01-24T06:18:35.946Z,20.10
2023-01-24T06:21:08.708Z,19.98
2023-01-24T06:23:37.184Z,20.02
2023-01-24T06:26:10.937Z,20.24
2023-01-24T06:28:39.747Z,20.37
2023-01-24T06:31:20.990Z,20.39
2023-01-24T06:34:05.667Z,20.44
2023-01-24T06:36:53.347Z,20.45
2023-01-24T06:39:22.485Z,20.18
2023-01-24T06:41:52.585Z,20.38
2023-01-24T06:44:21.149Z,20.30
2023-01-24T06:46:49.064Z,20.35
2023-01-24T06:49:17.061Z,20.73
2023-01-24T06:51:50.498Z,21.53
2023-01-24T06:54:18.448Z,22.33
2023-01-24T06:56:46.411Z,22.60
2023-01-24T06:59:15.724Z,23.58
2023-01-24T07:01:43.782Z,23.70
2023-01-24T07:04:11.811Z,23.00
2023-01-24T07:06:39.846Z,23.17
2023-01-24T07:09:07.961Z,24.44
2023-01-24T07:11:36.250Z,23.86
2023-01-24T07:14:04.350Z,23.84
2023-01-24T07:16:33.716Z,24.67
2023-01-24T07:19:02.257Z,24.00
2023-01-24T07:21:30.893Z,24.38
2023-01-24T07:24:00.269Z,24.40
2023-01-24T07:26:29.296Z,24.33
2023-01-24T07:28:57.236Z,24.37
2023-01-24T07:31:25.677Z,23.82
2023-01-24T07:33:55.024Z,24.31
2023-01-24T07:36:23.062Z,23.68
2023-01-24T07:38:54.538Z,24.14
2023-01-24T07:41:22.625Z,23.73
2023-01-24T07:43:54.503Z,23.99
2023-01-24T07:46:22.869Z,24.16
2023-01-24T07:48:50.829Z,24.17
2023-01-24T07:51:20.451Z,23.38
2023-01-24T07:53:49.209Z,23.21
2023-01-24T07:56:25.357Z,23.48
2023-01-24T07:58:53.499Z,23.12
2023-01-24T08:01:22.700Z,23.52
2023-01-24T08:03:51.532Z,23.55
2023-01-24T08:06:20.936Z,23.36
2023-01-24T08:08:48.916Z,23.24
2023-01-24T08:11:18.591Z,23.57
2023-01-24T08:13:47.079Z,23.43
2023-01-24T08:16:15.635Z,23.75
2023-01-24T08:18:44.742Z,23.68
2023-01-24T08:21:14.483Z,23.92
2023-01-24T08:23:44.091Z,23.85
2023-01-24T08:26:12.046Z,23.15
2023-01-24T08:28:39.957Z,23.00
2023-01-24T08:31:08.092Z,23.20
2023-01-24T08:33:38.907Z,23.05
2023-01-24T08:36:07.822Z,22.89
2023-01-24T08:38:36.002Z,23.13
2023-01-24T08:41:09.102Z,23.00
2023-01-24T08:43:37.420Z,23.04
2023-01-24T08:46:05.658Z,23.13
2023-01-24T08:48:33.812Z,22.87
2023-01-24T08:51:05.045Z,22.95
2023-01-24T08:53:34.598Z,22.65
2023-01-24T08:56:03.609Z,22.84
2023-01-24T08:58:34.332Z,22.80
2023-01-24T09:01:02.409Z,22.77
2023-01-24T09:03:30.365Z,22.77
2023-01-24T09:05:59.292Z,22.67
2023-01-24T09:08:27.370Z,22.75
2023-01-24T09:10:55.561Z,22.71
2023-01-24T09:13:23.497Z,24.89
2023-01-24T09:15:53.745Z,25.43
2023-01-24T09:18:21.817Z,25.10
2023-01-24T09:20:49.868Z,25.36
2023-01-24T09:23:17.867Z,25.18
2023-01-24T09:25:52.330Z,24.79
2023-01-24T09:28:21.344Z,24.58
2023-01-24T09:30:50.094Z,24.33
2023-01-24T09:33:21.071Z,24.23
2023-01-24T09:35:58.074Z,23.67
2023-01-24T09:38:27.307Z,23.82
2023-01-24T09:41:07.355Z,23.44
2023-01-24T09:43:47.303Z,23.44
2023-01-24T09:46:35.634Z,23.67
2023-01-24T09:49:15.653Z,23.66
2023-01-24T09:51:47.586Z,23.61
2023-01-24T09:54:23.885Z,23.74
2023-01-24T09:56:53.474Z,23.63
2023-01-24T09:59:24.573Z,23.81
2023-01-24T10:01:53.965Z,23.51
2023-01-24T10:04:27.661Z,23.75
2023-01-24T10:07:33.777Z,23.79
2023-01-24T10:10:16.752Z,23.58
2023-01-24T10:12:53.647Z,23.62
2023-01-24T10:15:36.279Z,23.43
2023-01-24T10:18:34.617Z,23.36
2023-01-24T10:21:17.089Z,23.63
2023-01-24T10:23:50.653Z,23.69
2023-01-24T10:26:21.587Z,23.23
2023-01-24T10:28:52.211Z,22.97
2023-01-24T10:31:25.339Z,23.17
2023-01-24T10:33:58.832Z,23.36
2023-01-24T10:36:38.918Z,23.21
2023-01-24T10:39:07.050Z,22.88
2023-01-24T10:41:35.194Z,23.22
2023-01-24T10:44:10.986Z,23.23
2023-01-24T10:47:02.767Z,22.97
2023-01-24T10:49:34.943Z,22.89
2023-01-24T10:52:15.821Z,22.81
2023-01-24T10:54:49.981Z,22.79
2023-01-24T10:57:29.140Z,22.41
2023-01-24T10:59:57.644Z,22.64
2023-01-24T11:02:27.331Z,22.73
2023-01-24T11:05:01.438Z,22.56
2023-01-24T11:07:33.712Z,22.55
2023-01-24T11:10:03.166Z,22.68
2023-01-24T11:12:31.156Z,22.75
2023-01-24T11:14:59.270Z,22.64
2023-01-24T11:17:37.193Z,22.71
2023-01-24T11:20:24.393Z,22.39
2023-01-24T11:22:53.839Z,22.42
2023-01-24T11:25:22.180Z,22.79
2023-01-24T11:27:51.600Z,22.49
2023-01-24T11:30:21.863Z,22.67
2023-01-24T11:33:00.875Z,22.65
2023-01-24T11:35:32.341Z,22.42
2023-01-24T11:38:20.101Z,22.10
2023-01-24T11:40:55.952Z,22.58
2023-01-24T11:43:57.306Z,22.29
2023-01-24T11:46:44.010Z,22.70
2023-01-24T11:49:48.570Z,22.29
2023-01-24T11:53:01.577Z,22.21
2023-01-24T11:55:41.052Z,22.31
2023-01-24T11:58:31.760Z,21.92
2023-01-24T12:01:11.018Z,21.99
2023-01-24T12:03:56.172Z,22.01
2023-01-24T12:06:39.063Z,22.44
2023-01-24T12:09:20.650Z,22.19
2023-01-24T12:12:05.433Z,22.13
2023-01-24T12:14:51.729Z,22.50
2023-01-24T12:17:39.779Z,22.53
2023-01-24T12:20:33.101Z,22.07
2023-01-24T12:23:10.070Z,22.21
2023-01-24T12:25:41.730Z,22.77
2023-01-24T12:28:17.182Z,22.46
2023-01-24T12:30:49.834Z,22.46
2023-01-24T12:33:27.235Z,22.68
2023-01-24T12:36:00.976Z,22.59
2023-01-24T12:38:36.012Z,22.50
2023-01-24T12:41:13.304Z,22.48
2023-01-24T12:43:53.736Z,22.81
2023-01-24T12:46:28.358Z,24.31
2023-01-24T12:49:14.284Z,24.13
2023-01-24T12:51:49.087Z,25.28
2023-01-24T12:54:21.547Z,25.24
2023-01-24T12:56:59.325Z,26.12
2023-01-24T12:59:30.700Z,26.67
2023-01-24T13:02:43.372Z,26.74
2023-01-24T13:05:29.913Z,26.68
2023-01-24T13:08:12.482Z,26.73
2023-01-24T13:10:59.248Z,27.13
2023-01-24T13:13:31.889Z,26.92
2023-01-24T13:16:28.133Z,26.96
2023-01-24T13:19:05.947Z,26.81
2023-01-24T13:21:43.931Z,26.76
2023-01-24T13:24:40.715Z,26.55
2023-01-24T13:27:20.858Z,26.53
2023-01-24T13:30:00.633Z,26.63
2023-01-24T13:32:30.432Z,26.93
2023-01-24T13:35:01.036Z,26.26
2023-01-24T13:37:33.536Z,26.18
2023-01-24T13:40:04.072Z,26.22
2023-01-24T13:42:36.694Z,26.62
2023-01-24T13:45:42.472Z,26.45
2023-01-24T13:48:46.858Z,26.45
2023-01-24T13:51:33.596Z,25.79
2023-01-24T13:54:02.927Z,25.56
2023-01-24T13:56:31.680Z,25.61
2023-01-24T13:59:01.632Z,25.22
2023-01-24T14:01:29.759Z,25.50
2023-01-24T14:04:01.888Z,25.36
2023-01-24T14:06:42.390Z,24.72
2023-01-24T14:09:22.233Z,25.23
2023-01-24T14:11:59.284Z,25.41
2023-01-24T14:14:36.349Z,25.09
2023-01-24T14:17:29.693Z,25.18
2023-01-24T14:20:00.304Z,24.61
2023-01-24T14:22:39.506Z,24.58
2023-01-24T14:25:35.119Z,24.72
2023-01-24T14:28:04.615Z,24.38
2023-01-24T14:30:38.801Z,24.34
2023-01-24T14:33:21.982Z,24.16
2023-01-24T14:35:58.921Z,24.35
2023-01-24T14:38:26.869Z,23.82
2023-01-24T14:40:57.254Z,23.89
2023-01-24T14:43:35.247Z,23.66
2023-01-24T14:46:12.451Z,23.62
2023-01-24T14:48:40.907Z,23.71
2023-01-24T14:51:18.480Z,23.75
2023-01-24T14:53:51.651Z,23.66
2023-01-24T14:56:20.420Z,23.99
2023-01-24T14:58:48.545Z,23.73
2023-01-24T15:01:29.741Z,24.05
2023-01-24T15:03:58.288Z,24.14
2023-01-24T15:06:29.530Z,23.70
2023-01-24T15:08:59.723Z,23.96
2023-01-24T15:11:31.219Z,23.89
2023-01-24T15:14:02.026Z,23.58
2023-01-24T15:16:36.954Z,23.52
2023-01-24T15:19:08.018Z,23.51
2023-01-24T15:21:40.956Z,23.69
2023-01-24T15:24:20.977Z,23.42
2023-01-24T15:26:48.984Z,23.45
2023-01-24T15:29:50.933Z,23.10
2023-01-24T15:32:40.532Z,22.94
2023-01-24T15:35:28.667Z,22.96
2023-01-24T15:38:24.687Z,23.24
2023-01-24T15:40:55.865Z,22.94
2023-01-24T15:43:46.768Z,23.19
2023-01-24T15:46:45.816Z,23.22
2023-01-24T15:49:33.081Z,22.93
2023-01-24T15:52:15.336Z,23.27
2023-01-24T15:54:46.586Z,22.84
2023-01-24T15:57:20.777Z,22.68
2023-01-24T15:59:52.122Z,23.13
2023-01-24T16:02:20.207Z,22.75
2023-01-24T16:04:48.922Z,23.02
2023-01-24T16:07:19.114Z,22.67
2023-01-24T16:09:49.747Z,23.01
2023-01-24T16:12:20.585Z,23.03
2023-01-24T16:15:02.254Z,22.67
2023-01-24T16:17:34.417Z,22.66
2023-01-24T16:20:02.888Z,22.81
2023-01-24T16:22:31.463Z,23.17
2023-01-24T16:25:00.735Z,22.68
2023-01-24T16:27:33.295Z,23.26
2023-01-24T16:30:01.480Z,23.08
2023-01-24T16:32:30.103Z,23.01
2023-01-24T16:34:58.001Z,23.06
2023-01-24T16:37:25.982Z,23.47
2023-01-24T16:39:54.539Z,23.22
2023-01-24T16:42:23.998Z,23.60
2023-01-24T16:44:56.676Z,23.45
2023-01-24T16:47:25.045Z,23.27
2023-01-24T16:49:54.985Z,23.60
2023-01-24T16:52:23.706Z,23.58
2023-01-24T16:54:52.280Z,23.59
2023-01-24T16:57:20.538Z,23.51
2023-01-24T16:59:50.291Z,23.43
2023-01-24T17:02:18.719Z,23.49
2023-01-24T17:04:49.259Z,23.01
2023-01-24T17:07:17.500Z,22.96
2023-01-24T17:09:45.369Z,22.85
2023-01-24T17:12:14.989Z,23.24
2023-01-24T17:14:43.869Z,22.69
2023-01-24T17:17:13.396Z,23.01
2023-01-24T17:19:41.327Z,22.60
2023-01-24T17:22:09.475Z,23.11
2023-01-24T17:24:37.439Z,22.67
2023-01-24T17:27:05.639Z,22.36
2023-01-24T17:29:33.517Z,22.38
2023-01-24T17:32:01.697Z,22.80
2023-01-24T17:34:31.160Z,22.39
2023-01-24T17:36:59.164Z,22.55
2023-01-24T17:39:27.253Z,22.62
2023-01-24T17:41:55.419Z,22.51
2023-01-24T17:44:23.720Z,22.27
2023-01-24T17:46:51.752Z,22.20
2023-01-24T17:49:19.767Z,22.41
2023-01-24T17:51:50.225Z,22.49
2023-01-24T17:54:18.764Z,22.24
2023-01-24T17:56:46.818Z,22.64
2023-01-24T17:59:14.780Z,22.60
2023-01-24T18:01:42.729Z,22.33
2023-01-24T18:04:10.801Z,22.18
2023-01-24T18:06:38.846Z,22.54
2023-01-24T18:09:08.174Z,22.33
2023-01-24T18:11:37.304Z,22.49
2023-01-24T18:14:05.979Z,22.15
2023-01-24T18:16:34.019Z,22.06
2023-01-24T18:19:02.075Z,22.26
2023-01-24T18:21:30.123Z,22.22
2023-01-24T18:24:00.224Z,22.55
2023-01-24T18:26:31.535Z,22.45
2023-01-24T18:29:00.924Z,22.19
2023-01-24T18:31:29.298Z,22.23
2023-01-24T18:33:59.646Z,22.54
2023-01-24T18:36:29.524Z,22.54
2023-01-24T18:38:58.198Z,22.57
2023-01-24T18:41:27.637Z,22.32
2023-01-24T18:43:58.741Z,22.64
2023-01-24T18:46:26.803Z,22.19
2023-01-24T18:48:54.789Z,22.71
2023-01-24T18:51:23.011Z,22.52
2023-01-24T18:53:54.435Z,22.25
2023-01-24T18:56:22.739Z,22.62
2023-01-24T18:58:50.961Z,22.42
2023-01-24T19:01:22.301Z,22.69
2023-01-24T19:03:51.186Z,22.25
2023-01-24T19:06:26.371Z,22.33
2023-01-24T19:09:04.192Z,22.76
2023-01-24T19:11:34.215Z,22.72
2023-01-24T19:14:03.925Z,22.83
2023-01-24T19:16:36.995Z,22.33
2023-01-24T19:19:06.033Z,22.84
2023-01-24T19:21:34.863Z,22.47
2023-01-24T19:24:04.366Z,22.81
2023-01-24T19:26:32.674Z,22.75
2023-01-24T19:29:01.523Z,22.33
2023-01-24T19:31:30.599Z,22.47
2023-01-24T19:34:00.298Z,22.85
2023-01-24T19:36:28.764Z,22.56
2023-01-24T19:38:58.264Z,22.67
2023-01-24T19:41:28.783Z,22.78
2023-01-24T19:44:19.640Z,23.02
2023-01-24T19:46:47.273Z,22.59
2023-01-24T19:49:16.701Z,22.68
2023-01-24T19:51:44.823Z,22.84
2023-01-24T19:54:12.957Z,22.75
2023-01-24T19:56:41.355Z,22.92
2023-01-24T19:59:09.522Z,23.17
2023-01-24T20:01:37.575Z,22.94
2023-01-24T20:04:22.619Z,23.33
2023-01-24T20:06:54.105Z,23.29
2023-01-24T20:09:22.806Z,23.43
2023-01-24T20:11:53.021Z,23.08
2023-01-24T20:14:21.340Z,23.05
2023-01-24T20:16:49.355Z,23.38
2023-01-24T20:19:28.211Z,23.07
2023-01-24T20:21:59.792Z,23.34
2023-01-24T20:24:28.483Z,23.47
2023-01-24T20:26:56.689Z,23.56
2023-01-24T20:29:25.152Z,23.16
2023-01-24T20:31:54.526Z,23.11
2023-01-24T20:34:23.648Z,23.14
2023-01-24T20:36:52.705Z,23.24
2023-01-24T20:39:22.623Z,23.66
2023-01-24T20:41:50.990Z,23.29
2023-01-24T20:44:26.451Z,23.35
2023-01-24T20:46:55.018Z,23.62
2023-01-24T20:49:23.165Z,23.27
2023-01-24T20:51:51.147Z,23.76
2023-01-24T20:54:19.232Z,23.38
2023-01-24T20:56:49.667Z,23.61
2023-01-24T20:59:17.963Z,23.63
2023-01-24T21:01:45.995Z,23.67
2023-01-24T21:04:13.994Z,23.41
2023-01-24T21:06:44.062Z,23.35
2023-01-24T21:09:12.445Z,23.64
2023-01-24T21:11:40.443Z,23.56
2023-01-24T21:14:14.047Z,23.55
2023-01-24T21:16:42.077Z,23.70
2023-01-24T21:19:14.717Z,23.48
2023-01-24T21:21:42.673Z,23.66
2023-01-24T21:24:31.876Z,23.73
2023-01-24T21:27:00.888Z,23.69
2023-01-24T21:29:30.647Z,23.96
2023-01-24T21:31:58.730Z,23.62
2023-01-24T21:34:27.187Z,23.66
2023-01-24T21:36:55.359Z,24.04
2023-01-24T21:39:25.138Z,24.01
2023-01-24T21:41:56.534Z,23.56
2023-01-24T21:44:25.637Z,23.71
2023-01-24T21:46:55.279Z,23.58
2023-01-24T21:49:23.574Z,23.72
2023-01-24T21:51:53.805Z,23.56
2023-01-24T21:54:23.005Z,23.87
2023-01-24T21:57:23.979Z,23.58
2023-01-24T21:59:57.211Z,24.07
2023-01-24T22:02:28.196Z,23.58
2023-01-24T22:04:56.311Z,23.94
2023-01-24T22:07:25.835Z,24.03
2023-01-24T22:09:55.410Z,23.92
2023-01-24T22:12:23.621Z,23.61
2023-01-24T22:14:52.675Z,24.05
2023-01-24T22:17:22.978Z,23.74
2023-01-24T22:19:55.347Z,24.00
2023-01-24T22:22:52.299Z,24.08
2023-01-24T22:25:31.807Z,23.78
2023-01-24T22:28:00.457Z,23.66
2023-01-24T22:30:29.983Z,24.16
2023-01-24T22:32:58.511Z,24.33
2023-01-24T22:35:29.280Z,23.95
2023-01-24T22:37:58.748Z,23.81
2023-01-24T22:40:28.148Z,24.21
2023-01-24T22:42:57.883Z,24.33
2023-01-24T22:45:26.242Z,23.87
2023-01-24T22:47:54.691Z,24.06
2023-01-24T22:50:22.984Z,24.14
2023-01-24T22:52:52.928Z,24.10
2023-01-24T22:55:21.160Z,24.11
2023-01-24T22:57:49.228Z,23.91
2023-01-24T23:00:19.056Z,23.95
2023-01-24T23:02:46.994Z,24.04
2023-01-24T23:05:15.254Z,24.13
2023-01-24T23:07:43.322Z,23.92
2023-01-24T23:10:13.077Z,24.30
2023-01-24T23:12:58.435Z,24.00
2023-01-24T23:15:43.811Z,24.08
2023-01-24T23:18:16.019Z,24.09
2023-01-24T23:21:01.192Z,24.37
2023-01-24T23:23:29.106Z,24.04
2023-01-24T23:25:58.918Z,24.32
2023-01-24T23:28:30.400Z,24.47
2023-01-24T23:31:05.829Z,24.16
2023-01-24T23:33:37.782Z,24.30
2023-01-24T23:36:06.223Z,24.35
2023-01-24T23:38:34.205Z,24.48
2023-01-24T23:41:07.207Z,24.25
2023-01-24T23:43:35.362Z,24.51
2023-01-24T23:46:03.705Z,24.69
2023-01-24T23:48:31.805Z,24.47
2023-01-24T23:51:01.218Z,24.82
2023-01-24T23:53:29.500Z,24.89
2023-01-24T23:55:58.073Z,24.57
2023-01-24T23:58:27.587Z,24.58
